createdAt,value
2023-02-08T21:42:13.251Z,-4.50
2023-02-08T21:44:13.248Z,-4.50
2023-02-08T21:46:13.332Z,-4.50
2023-02-08T21:48:13.291Z,-4.50
2023-02-08T21:50:13.223Z,-4.50
2023-02-08T21:52:13.346Z,-4.60
2023-02-08T21:54:13.262Z,-4.60
2023-02-08T21:56:13.259Z,-4.60
2023-02-08T21:58:13.257Z,-4.70
2023-02-08T22:00:13.280Z,-4.70
2023-02-08T22:02:13.314Z,-4.70
2023-02-08T22:04:13.317Z,-4.80
2023-02-08T22:06:13.307Z,-4.90
2023-02-08T22:08:43.346Z,-5.00
2023-02-08T22:10:50.352Z,-5.00
2023-02-08T22:12:43.285Z,-5.00
2023-02-08T22:14:43.290Z,-5.10
2023-02-08T22:16:43.286Z,-5.10
2023-02-08T22:18:43.302Z,-5.10
2023-02-08T22:20:43.520Z,-5.40
2023-02-08T22:22:43.338Z,-5.50
2023-02-08T22:24:43.270Z,-5.50
2023-02-08T22:26:43.259Z,-5.50
2023-02-08T22:28:43.231Z,-5.80
2023-02-08T22:30:43.543Z,-5.90
2023-02-08T22:32:43.241Z,-6.10
2023-02-08T22:34:43.242Z,-6.10
2023-02-08T22:36:43.228Z,-6.20
2023-02-08T22:38:43.256Z,-6.30
2023-02-08T22:40:43.627Z,-6.40
2023-02-08T22:42:43.233Z,-6.50
2023-02-08T22:44:43.296Z,-6.50
2023-02-08T22:46:43.270Z,-6.60
2023-02-08T22:48:43.267Z,-6.60
2023-02-08T22:50:43.324Z,-6.70
2023-02-08T22:52:43.241Z,-6.70
2023-02-08T22:54:43.302Z,-6.70
2023-02-08T22:56:43.264Z,-6.60
2023-02-08T22:58:43.256Z,-6.50
2023-02-08T23:00:43.473Z,-6.30
2023-02-08T23:02:43.296Z,-6.30
2023-02-08T23:04:43.259Z,-6.10
2023-02-08T23:06:43.317Z,-6.10
2023-02-08T23:08:43.383Z,-5.90
2023-02-08T23:10:43.551Z,-5.90
2023-02-08T23:12:43.345Z,-5.90
2023-02-08T23:14:43.252Z,-6.00
2023-02-08T23:16:43.249Z,-6.00
2023-02-08T23:18:43.253Z,-6.10
2023-02-08T23:20:43.521Z,-6.20
2023-02-08T23:22:43.307Z,-6.20
2023-02-08T23:24:43.247Z,-6.20
2023-02-08T23:26:43.324Z,-6.30
2023-02-08T23:28:43.247Z,-6.30
2023-02-08T23:30:43.576Z,-6.30
2023-02-08T23:32:43.361Z,-6.30
2023-02-08T23:34:43.318Z,-6.30
2023-02-08T23:36:43.366Z,-6.30
2023-02-08T23:38:43.394Z,-6.40
2023-02-08T23:40:43.807Z,-6.40
2023-02-08T23:42:43.276Z,-6.40
2023-02-08T23:44:43.262Z,-6.40
2023-02-08T23:46:43.368Z,-6.40
2023-02-08T23:48:43.306Z,-6.40
2023-02-08T23:51:13.272Z,-6.40
2023-02-08T23:53:13.288Z,-6.50
2023-02-08T23:55:13.319Z,-6.50
2023-02-08T23:57:13.273Z,-6.60
2023-02-08T23:59:13.341Z,-6.70
